sensor_id;sensor_type;location;lat;lon;timestamp;temperature;humidity
2639;DHT22;1329;51.384;7.122;2022-07-06T00:00:35;18.80;1.00
2639;DHT22;1329;51.384;7.122;2022-07-06T00:03:07;18.80;1.00
2639;DHT22;1329;51.384;7.122;2022-07-06T00:05:34;18.80;1.00
2639;DHT22;1329;51.384;7.122;2022-07-06T00:08:02;18.80;1.00
2639;DHT22;1329;51.384;7.122;2022-07-06T00:10:30;18.70;1.00
2639;DHT22;1329;51.384;7.122;2022-07-06T00:12:58;18.70;1.00
2639;DHT22;1329;51.384;7.122;2022-07-06T00:15:26;18.70;1.00
2639;DHT22;1329;51.384;7.122;2022-07-06T00:17:53;18.70;1.00
2639;DHT22;1329;51.384;7.122;2022-07-06T00:20:23;18.70;1.00
2639;DHT22;1329;51.384;7.122;2022-07-06T00:22:50;18.80;1.00
2639;DHT22;1329;51.384;7.122;2022-07-06T00:25:17;18.80;1.00
2639;DHT22;1329;51.384;7.122;2022-07-06T00:27:45;18.80;1.00
2639;DHT22;1329;51.384;7.122;2022-07-06T00:30:13;18.90;1.00
2639;DHT22;1329;51.384;7.122;2022-07-06T00:32:40;18.80;1.00
2639;DHT22;1329;51.384;7.122;2022-07-06T00:35:07;18.90;1.00
2639;DHT22;1329;51.384;7.122;2022-07-06T00:37:36;18.90;1.00
2639;DHT22;1329;51.384;7.122;2022-07-06T00:40:12;18.90;1.00
2639;DHT22;1329;51.384;7.122;2022-07-06T00:42:40;18.90;1.00
2639;DHT22;1329;51.384;7.122;2022-07-06T00:45:10;18.80;1.00
2639;DHT22;1329;51.384;7.122;2022-07-06T00:47:38;18.80;1.00
2639;DHT22;1329;51.384;7.122;2022-07-06T00:50:06;18.80;1.00
2639;DHT22;1329;51.384;7.122;2022-07-06T00:52:49;18.80;1.00
2639;DHT22;1329;51.384;7.122;2022-07-06T00:55:20;18.80;1.00
2639;DHT22;1329;51.384;7.122;2022-07-06T00:57:49;18.80;1.00
2639;DHT22;1329;51.384;7.122;2022-07-06T01:00:20;18.80;1.00
2639;DHT22;1329;51.384;7.122;2022-07-06T01:02:48;18.70;1.00
2639;DHT22;1329;51.384;7.122;2022-07-06T01:05:17;18.70;1.00
2639;DHT22;1329;51.384;7.122;2022-07-06T01:07:48;18.70;1.00
2639;DHT22;1329;51.384;7.122;2022-07-06T01:10:17;18.60;1.00
2639;DHT22;1329;51.384;7.122;2022-07-06T01:12:47;18.60;1.00
2639;DHT22;1329;51.384;7.122;2022-07-06T01:15:18;18.50;1.00
2639;DHT22;1329;51.384;7.122;2022-07-06T01:17:47;18.50;1.00
2639;DHT22;1329;51.384;7.122;2022-07-06T01:20:20;18.40;1.00
2639;DHT22;1329;51.384;7.122;2022-07-06T01:22:50;18.40;1.00
2639;DHT22;1329;51.384;7.122;2022-07-06T01:25:20;18.30;1.00
2639;DHT22;1329;51.384;7.122;2022-07-06T01:27:49;18.30;1.00
2639;DHT22;1329;51.384;7.122;2022-07-06T01:30:18;18.20;1.00
2639;DHT22;1329;51.384;7.122;2022-07-06T01:32:46;18.20;1.00
2639;DHT22;1329;51.384;7.122;2022-07-06T01:35:15;18.10;1.00
2639;DHT22;1329;51.384;7.122;2022-07-06T01:37:44;18.10;1.00
2639;DHT22;1329;51.384;7.122;2022-07-06T01:40:12;18.00;1.00
2639;DHT22;1329;51.384;7.122;2022-07-06T01:42:40;17.90;1.00
2639;DHT22;1329;51.384;7.122;2022-07-06T01:45:09;17.90;1.00
2639;DHT22;1329;51.384;7.122;2022-07-06T01:47:37;17.90;1.00
2639;DHT22;1329;51.384;7.122;2022-07-06T01:50:07;17.90;1.00
2639;DHT22;1329;51.384;7.122;2022-07-06T01:52:37;17.80;1.00
2639;DHT22;1329;51.384;7.122;2022-07-06T01:55:09;17.80;1.00
2639;DHT22;1329;51.384;7.122;2022-07-06T01:57:42;17.70;1.00
2639;DHT22;1329;51.384;7.122;2022-07-06T02:00:10;17.70;1.00
2639;DHT22;1329;51.384;7.122;2022-07-06T02:02:41;17.60;1.00
2639;DHT22;1329;51.384;7.122;2022-07-06T02:05:09;17.60;1.00
2639;DHT22;1329;51.384;7.122;2022-07-06T02:07:38;17.50;1.00
2639;DHT22;1329;51.384;7.122;2022-07-06T02:10:06;17.50;1.00
2639;DHT22;1329;51.384;7.122;2022-07-06T02:12:33;17.40;1.00
2639;DHT22;1329;51.384;7.122;2022-07-06T02:15:01;17.30;1.00
2639;DHT22;1329;51.384;7.122;2022-07-06T02:17:28;17.40;1.00
2639;DHT22;1329;51.384;7.122;2022-07-06T02:19:55;17.30;1.00
2639;DHT22;1329;51.384;7.122;2022-07-06T02:22:22;17.30;1.00
2639;DHT22;1329;51.384;7.122;2022-07-06T02:24:52;17.30;1.00
2639;DHT22;1329;51.384;7.122;2022-07-06T02:27:21;17.30;1.00
2639;DHT22;1329;51.384;7.122;2022-07-06T02:29:50;17.20;1.00
2639;DHT22;1329;51.384;7.122;2022-07-06T02:32:18;17.20;1.00
2639;DHT22;1329;51.384;7.122;2022-07-06T02:34:45;17.10;1.00
2639;DHT22;1329;51.384;7.122;2022-07-06T02:37:13;17.20;1.00
2639;DHT22;1329;51.384;7.122;2022-07-06T02:39:41;17.10;1.00
2639;DHT22;1329;51.384;7.122;2022-07-06T02:42:09;17.10;1.00
2639;DHT22;1329;51.384;7.122;2022-07-06T02:44:37;17.00;1.00
2639;DHT22;1329;51.384;7.122;2022-07-06T02:47:05;17.00;1.00
2639;DHT22;1329;51.384;7.122;2022-07-06T02:49:32;17.00;1.00
2639;DHT22;1329;51.384;7.122;2022-07-06T02:51:59;16.90;1.00
2639;DHT22;1329;51.384;7.122;2022-07-06T02:54:26;16.90;1.00
2639;DHT22;1329;51.384;7.122;2022-07-06T02:56:54;16.90;1.00
2639;DHT22;1329;51.384;7.122;2022-07-06T02:59:23;16.80;1.00
2639;DHT22;1329;51.384;7.122;2022-07-06T03:01:51;16.70;1.00
2639;DHT22;1329;51.384;7.122;2022-07-06T03:04:18;16.70;1.00
2639;DHT22;1329;51.384;7.122;2022-07-06T03:06:46;16.70;1.00
2639;DHT22;1329;51.384;7.122;2022-07-06T03:09:13;16.60;1.00
2639;DHT22;1329;51.384;7.122;2022-07-06T03:11:40;16.50;1.00
2639;DHT22;1329;51.384;7.122;2022-07-06T03:14:08;16.50;1.00
2639;DHT22;1329;51.384;7.122;2022-07-06T03:16:36;16.50;1.00
2639;DHT22;1329;51.384;7.122;2022-07-06T03:19:04;16.40;1.00
2639;DHT22;1329;51.384;7.122;2022-07-06T03:21:31;16.40;1.00
2639;DHT22;1329;51.384;7.122;2022-07-06T03:23:59;16.30;1.00
2639;DHT22;1329;51.384;7.122;2022-07-06T03:26:26;16.30;1.00
2639;DHT22;1329;51.384;7.122;2022-07-06T03:28:54;16.30;1.00
2639;DHT22;1329;51.384;7.122;2022-07-06T03:31:21;16.20;1.00
2639;DHT22;1329;51.384;7.122;2022-07-06T03:33:50;16.20;1.00
2639;DHT22;1329;51.384;7.122;2022-07-06T03:36:18;16.10;1.00
2639;DHT22;1329;51.384;7.122;2022-07-06T03:38:45;16.10;1.00
2639;DHT22;1329;51.384;7.122;2022-07-06T03:41:12;16.10;1.00
2639;DHT22;1329;51.384;7.122;2022-07-06T03:43:40;16.10;1.00
2639;DHT22;1329;51.384;7.122;2022-07-06T03:46:08;16.10;1.00
2639;DHT22;1329;51.384;7.122;2022-07-06T03:48:35;16.00;1.00
2639;DHT22;1329;51.384;7.122;2022-07-06T03:51:04;16.00;1.00
2639;DHT22;1329;51.384;7.122;2022-07-06T03:53:32;16.00;1.00
2639;DHT22;1329;51.384;7.122;2022-07-06T03:56:01;16.00;1.00
2639;DHT22;1329;51.384;7.122;2022-07-06T03:58:47;16.00;1.00
2639;DHT22;1329;51.384;7.122;2022-07-06T04:01:14;15.90;1.00
2639;DHT22;1329;51.384;7.122;2022-07-06T04:03:44;16.00;1.00
2639;DHT22;1329;51.384;7.122;2022-07-06T04:06:13;15.90;1.00
2639;DHT22;1329;51.384;7.122;2022-07-06T04:08:41;15.90;1.00
2639;DHT22;1329;51.384;7.122;2022-07-06T04:11:08;16.00;1.00
2639;DHT22;1329;51.384;7.122;2022-07-06T04:13:35;16.00;1.00
2639;DHT22;1329;51.384;7.122;2022-07-06T04:16:05;16.00;1.00
2639;DHT22;1329;51.384;7.122;2022-07-06T04:18:34;16.00;1.00
2639;DHT22;1329;51.384;7.122;2022-07-06T04:21:08;16.00;1.00
2639;DHT22;1329;51.384;7.122;2022-07-06T04:23:39;16.10;1.00
2639;DHT22;1329;51.384;7.122;2022-07-06T04:26:06;16.00;1.00
2639;DHT22;1329;51.384;7.122;2022-07-06T04:28:34;16.10;1.00
2639;DHT22;1329;51.384;7.122;2022-07-06T04:31:02;16.10;1.00
2639;DHT22;1329;51.384;7.122;2022-07-06T04:33:30;16.10;1.00
2639;DHT22;1329;51.384;7.122;2022-07-06T04:35:58;16.10;1.00
2639;DHT22;1329;51.384;7.122;2022-07-06T04:38:27;16.10;1.00
2639;DHT22;1329;51.384;7.122;2022-07-06T04:41:02;16.10;1.00
2639;DHT22;1329;51.384;7.122;2022-07-06T04:43:30;16.20;1.00
2639;DHT22;1329;51.384;7.122;2022-07-06T04:45:58;16.20;1.00
2639;DHT22;1329;51.384;7.122;2022-07-06T04:48:30;16.20;1.00
2639;DHT22;1329;51.384;7.122;2022-07-06T04:51:02;16.20;1.00
2639;DHT22;1329;51.384;7.122;2022-07-06T04:53:31;16.30;1.00
2639;DHT22;1329;51.384;7.122;2022-07-06T04:55:59;16.30;1.00
2639;DHT22;1329;51.384;7.122;2022-07-06T04:58:31;16.40;1.00
2639;DHT22;1329;51.384;7.122;2022-07-06T05:00:58;16.40;1.00
2639;DHT22;1329;51.384;7.122;2022-07-06T05:03:28;16.40;1.00
2639;DHT22;1329;51.384;7.122;2022-07-06T05:05:57;16.50;1.00
2639;DHT22;1329;51.384;7.122;2022-07-06T05:08:25;16.50;1.00
2639;DHT22;1329;51.384;7.122;2022-07-06T05:10:52;16.60;1.00
2639;DHT22;1329;51.384;7.122;2022-07-06T05:13:20;16.60;1.00
2639;DHT22;1329;51.384;7.122;2022-07-06T05:15:51;16.60;1.00
2639;DHT22;1329;51.384;7.122;2022-07-06T05:18:19;16.70;1.00
2639;DHT22;1329;51.384;7.122;2022-07-06T05:20:47;16.70;1.00
2639;DHT22;1329;51.384;7.122;2022-07-06T05:23:18;16.70;1.00
2639;DHT22;1329;51.384;7.122;2022-07-06T05:25:46;16.70;1.00
2639;DHT22;1329;51.384;7.122;2022-07-06T05:28:13;16.80;1.00
2639;DHT22;1329;51.384;7.122;2022-07-06T05:30:40;16.80;1.00
2639;DHT22;1329;51.384;7.122;2022-07-06T05:33:09;16.80;1.00
2639;DHT22;1329;51.384;7.122;2022-07-06T05:35:37;16.90;1.00
2639;DHT22;1329;51.384;7.122;2022-07-06T05:38:04;16.90;1.00
2639;DHT22;1329;51.384;7.122;2022-07-06T05:40:32;16.90;1.00
2639;DHT22;1329;51.384;7.122;2022-07-06T05:42:59;16.90;1.00
2639;DHT22;1329;51.384;7.122;2022-07-06T05:45:27;17.00;1.00
2639;DHT22;1329;51.384;7.122;2022-07-06T05:47:54;17.10;1.00
2639;DHT22;1329;51.384;7.122;2022-07-06T05:50:40;17.10;1.00
2639;DHT22;1329;51.384;7.122;2022-07-06T05:53:07;17.20;1.00
2639;DHT22;1329;51.384;7.122;2022-07-06T05:55:35;17.20;1.00
2639;DHT22;1329;51.384;7.122;2022-07-06T05:58:02;17.20;1.00
2639;DHT22;1329;51.384;7.122;2022-07-06T06:00:33;17.30;1.00
2639;DHT22;1329;51.384;7.122;2022-07-06T06:03:03;17.30;1.00
2639;DHT22;1329;51.384;7.122;2022-07-06T06:05:34;17.30;1.00
2639;DHT22;1329;51.384;7.122;2022-07-06T06:08:04;17.30;1.00
2639;DHT22;1329;51.384;7.122;2022-07-06T06:10:36;17.40;1.00
2639;DHT22;1329;51.384;7.122;2022-07-06T06:13:03;17.40;1.00
2639;DHT22;1329;51.384;7.122;2022-07-06T06:15:31;17.50;1.00
2639;DHT22;1329;51.384;7.122;2022-07-06T06:17:58;17.50;1.00
2639;DHT22;1329;51.384;7.122;2022-07-06T06:20:29;17.60;1.00
2639;DHT22;1329;51.384;7.122;2022-07-06T06:22:58;17.60;1.00
2639;DHT22;1329;51.384;7.122;2022-07-06T06:25:32;17.80;1.00
2639;DHT22;1329;51.384;7.122;2022-07-06T06:28:01;17.80;1.00
2639;DHT22;1329;51.384;7.122;2022-07-06T06:30:30;17.90;1.00
2639;DHT22;1329;51.384;7.122;2022-07-06T06:33:11;18.10;1.00
2639;DHT22;1329;51.384;7.122;2022-07-06T06:35:43;18.10;1.00
2639;DHT22;1329;51.384;7.122;2022-07-06T06:38:11;18.20;1.00
2639;DHT22;1329;51.384;7.122;2022-07-06T06:40:40;18.30;1.00
2639;DHT22;1329;51.384;7.122;2022-07-06T06:43:11;18.30;1.00
2639;DHT22;1329;51.384;7.122;2022-07-06T06:45:41;18.40;1.00
2639;DHT22;1329;51.384;7.122;2022-07-06T06:48:10;18.50;1.00
2639;DHT22;1329;51.384;7.122;2022-07-06T06:50:37;18.50;1.00
2639;DHT22;1329;51.384;7.122;2022-07-06T06:53:07;18.60;1.00
2639;DHT22;1329;51.384;7.122;2022-07-06T06:55:35;18.60;1.00
2639;DHT22;1329;51.384;7.122;2022-07-06T06:58:04;18.70;1.00
2639;DHT22;1329;51.384;7.122;2022-07-06T07:00:34;18.70;1.00
2639;DHT22;1329;51.384;7.122;2022-07-06T07:03:08;18.70;1.00
2639;DHT22;1329;51.384;7.122;2022-07-06T07:05:36;18.80;1.00
2639;DHT22;1329;51.384;7.122;2022-07-06T07:08:05;18.80;1.00
2639;DHT22;1329;51.384;7.122;2022-07-06T07:10:32;18.90;1.00
2639;DHT22;1329;51.384;7.122;2022-07-06T07:13:01;18.90;1.00
2639;DHT22;1329;51.384;7.122;2022-07-06T07:15:29;18.90;1.00
2639;DHT22;1329;51.384;7.122;2022-07-06T07:17:59;19.00;1.00
2639;DHT22;1329;51.384;7.122;2022-07-06T07:20:29;19.00;1.00
2639;DHT22;1329;51.384;7.122;2022-07-06T07:23:00;19.00;1.00
2639;DHT22;1329;51.384;7.122;2022-07-06T07:25:30;19.00;1.00
2639;DHT22;1329;51.384;7.122;2022-07-06T07:27:58;19.00;1.00
2639;DHT22;1329;51.384;7.122;2022-07-06T07:30:26;19.00;1.00
2639;DHT22;1329;51.384;7.122;2022-07-06T07:32:55;19.10;1.00
2639;DHT22;1329;51.384;7.122;2022-07-06T07:35:22;19.10;1.00
2639;DHT22;1329;51.384;7.122;2022-07-06T07:37:50;19.20;1.00
2639;DHT22;1329;51.384;7.122;2022-07-06T07:40:23;19.20;1.00
2639;DHT22;1329;51.384;7.122;2022-07-06T07:43:01;19.30;1.00
2639;DHT22;1329;51.384;7.122;2022-07-06T07:45:30;19.40;1.00
2639;DHT22;1329;51.384;7.122;2022-07-06T07:48:02;19.50;1.00
2639;DHT22;1329;51.384;7.122;2022-07-06T07:50:38;19.50;1.00
2639;DHT22;1329;51.384;7.122;2022-07-06T07:53:05;19.60;1.00
2639;DHT22;1329;51.384;7.122;2022-07-06T07:55:39;19.60;1.00
2639;DHT22;1329;51.384;7.122;2022-07-06T07:58:09;19.60;1.00
2639;DHT22;1329;51.384;7.122;2022-07-06T08:00:40;19.60;1.00
2639;DHT22;1329;51.384;7.122;2022-07-06T08:03:16;19.70;1.00
2639;DHT22;1329;51.384;7.122;2022-07-06T08:05:44;19.60;1.00
2639;DHT22;1329;51.384;7.122;2022-07-06T08:08:13;19.60;1.00
2639;DHT22;1329;51.384;7.122;2022-07-06T08:10:41;19.70;1.00
2639;DHT22;1329;51.384;7.122;2022-07-06T08:13:09;19.70;1.00
2639;DHT22;1329;51.384;7.122;2022-07-06T08:15:37;19.70;1.00
2639;DHT22;1329;51.384;7.122;2022-07-06T08:18:05;19.70;1.00
2639;DHT22;1329;51.384;7.122;2022-07-06T08:20:34;19.80;1.00
2639;DHT22;1329;51.384;7.122;2022-07-06T08:23:04;19.80;1.00
2639;DHT22;1329;51.384;7.122;2022-07-06T08:25:32;19.80;1.00
2639;DHT22;1329;51.384;7.122;2022-07-06T08:28:01;19.80;1.00
2639;DHT22;1329;51.384;7.122;2022-07-06T08:30:29;19.80;1.00
2639;DHT22;1329;51.384;7.122;2022-07-06T08:33:00;19.80;1.00
2639;DHT22;1329;51.384;7.122;2022-07-06T08:35:40;19.80;1.00
2639;DHT22;1329;51.384;7.122;2022-07-06T08:38:09;19.90;1.00
2639;DHT22;1329;51.384;7.122;2022-07-06T08:40:40;19.90;1.00
2639;DHT22;1329;51.384;7.122;2022-07-06T08:43:13;19.90;1.00
2639;DHT22;1329;51.384;7.122;2022-07-06T08:45:43;19.90;1.00
2639;DHT22;1329;51.384;7.122;2022-07-06T08:48:12;20.00;1.00
2639;DHT22;1329;51.384;7.122;2022-07-06T08:50:43;20.10;1.00
2639;DHT22;1329;51.384;7.122;2022-07-06T08:53:13;20.20;1.00
2639;DHT22;1329;51.384;7.122;2022-07-06T08:55:43;20.30;1.00
2639;DHT22;1329;51.384;7.122;2022-07-06T08:58:12;20.40;1.00
2639;DHT22;1329;51.384;7.122;2022-07-06T09:00:58;20.40;1.00
2639;DHT22;1329;51.384;7.122;2022-07-06T09:03:26;20.50;1.00
2639;DHT22;1329;51.384;7.122;2022-07-06T09:06:00;20.40;1.00
2639;DHT22;1329;51.384;7.122;2022-07-06T09:08:34;20.50;1.00
2639;DHT22;1329;51.384;7.122;2022-07-06T09:11:07;20.50;1.00
2639;DHT22;1329;51.384;7.122;2022-07-06T09:13:35;20.50;1.00
2639;DHT22;1329;51.384;7.122;2022-07-06T09:16:15;20.50;1.00
2639;DHT22;1329;51.384;7.122;2022-07-06T09:18:45;20.50;1.00
2639;DHT22;1329;51.384;7.122;2022-07-06T09:21:25;20.60;1.00
2639;DHT22;1329;51.384;7.122;2022-07-06T09:23:56;20.90;1.00
2639;DHT22;1329;51.384;7.122;2022-07-06T09:26:28;21.10;1.00
2639;DHT22;1329;51.384;7.122;2022-07-06T09:28:59;21.20;1.00
2639;DHT22;1329;51.384;7.122;2022-07-06T09:31:30;21.40;1.00
2639;DHT22;1329;51.384;7.122;2022-07-06T09:33:59;21.40;1.00
2639;DHT22;1329;51.384;7.122;2022-07-06T09:36:43;21.40;1.00
2639;DHT22;1329;51.384;7.122;2022-07-06T09:39:17;21.40;1.00
2639;DHT22;1329;51.384;7.122;2022-07-06T09:41:46;21.30;1.00
2639;DHT22;1329;51.384;7.122;2022-07-06T09:44:18;21.20;1.00
2639;DHT22;1329;51.384;7.122;2022-07-06T09:46:48;21.30;1.00
2639;DHT22;1329;51.384;7.122;2022-07-06T09:49:18;21.20;1.00
2639;DHT22;1329;51.384;7.122;2022-07-06T09:51:50;21.20;1.00
2639;DHT22;1329;51.384;7.122;2022-07-06T09:54:23;21.30;1.00
2639;DHT22;1329;51.384;7.122;2022-07-06T09:56:56;21.30;1.00
2639;DHT22;1329;51.384;7.122;2022-07-06T09:59:34;21.30;1.00
2639;DHT22;1329;51.384;7.122;2022-07-06T10:02:04;21.40;1.00
2639;DHT22;1329;51.384;7.122;2022-07-06T10:04:33;21.40;1.00
2639;DHT22;1329;51.384;7.122;2022-07-06T10:07:02;21.30;1.00
2639;DHT22;1329;51.384;7.122;2022-07-06T10:09:31;21.40;1.00
2639;DHT22;1329;51.384;7.122;2022-07-06T10:12:00;21.40;1.00
2639;DHT22;1329;51.384;7.122;2022-07-06T10:14:30;21.40;1.00
2639;DHT22;1329;51.384;7.122;2022-07-06T10:17:00;21.50;1.00
2639;DHT22;1329;51.384;7.122;2022-07-06T10:19:30;21.60;1.00
2639;DHT22;1329;51.384;7.122;2022-07-06T10:22:00;21.70;1.00
2639;DHT22;1329;51.384;7.122;2022-07-06T10:24:31;21.80;1.00
2639;DHT22;1329;51.384;7.122;2022-07-06T10:27:00;21.90;1.00
2639;DHT22;1329;51.384;7.122;2022-07-06T10:29:28;21.90;1.00
2639;DHT22;1329;51.384;7.122;2022-07-06T10:32:03;21.90;1.00
2639;DHT22;1329;51.384;7.122;2022-07-06T10:34:33;22.00;1.00
2639;DHT22;1329;51.384;7.122;2022-07-06T10:37:03;22.00;1.00
2639;DHT22;1329;51.384;7.122;2022-07-06T10:39:38;22.10;1.00
2639;DHT22;1329;51.384;7.122;2022-07-06T10:42:43;22.10;1.00
2639;DHT22;1329;51.384;7.122;2022-07-06T10:45:19;22.30;1.00
2639;DHT22;1329;51.384;7.122;2022-07-06T10:50:51;22.30;1.00
2639;DHT22;1329;51.384;7.122;2022-07-06T10:53:32;22.30;1.00
2639;DHT22;1329;51.384;7.122;2022-07-06T10:56:06;22.30;1.00
2639;DHT22;1329;51.384;7.122;2022-07-06T10:58:51;22.40;1.00
2639;DHT22;1329;51.384;7.122;2022-07-06T11:01:21;22.50;1.00
2639;DHT22;1329;51.384;7.122;2022-07-06T11:04:05;22.60;1.00
2639;DHT22;1329;51.384;7.122;2022-07-06T11:06:38;22.80;1.00
2639;DHT22;1329;51.384;7.122;2022-07-06T11:09:10;22.90;1.00
2639;DHT22;1329;51.384;7.122;2022-07-06T11:11:42;22.90;1.00
2639;DHT22;1329;51.384;7.122;2022-07-06T11:14:24;23.00;1.00
2639;DHT22;1329;51.384;7.122;2022-07-06T11:17:06;23.00;1.00
2639;DHT22;1329;51.384;7.122;2022-07-06T11:19:47;23.00;1.00
2639;DHT22;1329;51.384;7.122;2022-07-06T11:22:17;22.90;1.00
2639;DHT22;1329;51.384;7.122;2022-07-06T11:24:47;22.90;1.00
2639;DHT22;1329;51.384;7.122;2022-07-06T11:27:18;22.90;1.00
2639;DHT22;1329;51.384;7.122;2022-07-06T11:30:05;22.80;1.00
2639;DHT22;1329;51.384;7.122;2022-07-06T11:32:54;22.80;1.00
2639;DHT22;1329;51.384;7.122;2022-07-06T11:35:23;22.90;1.00
2639;DHT22;1329;51.384;7.122;2022-07-06T11:37:57;22.90;1.00
2639;DHT22;1329;51.384;7.122;2022-07-06T11:40:37;22.90;1.00
2639;DHT22;1329;51.384;7.122;2022-07-06T11:43:12;22.90;1.00
2639;DHT22;1329;51.384;7.122;2022-07-06T11:45:44;23.00;1.00
2639;DHT22;1329;51.384;7.122;2022-07-06T11:48:20;23.00;1.00
2639;DHT22;1329;51.384;7.122;2022-07-06T11:50:59;23.00;1.00
2639;DHT22;1329;51.384;7.122;2022-07-06T11:53:43;23.10;1.00
2639;DHT22;1329;51.384;7.122;2022-07-06T11:56:26;23.10;1.00
2639;DHT22;1329;51.384;7.122;2022-07-06T11:59:10;23.10;1.00
2639;DHT22;1329;51.384;7.122;2022-07-06T12:01:38;23.10;1.00
2639;DHT22;1329;51.384;7.122;2022-07-06T12:04:10;23.00;1.00
2639;DHT22;1329;51.384;7.122;2022-07-06T12:06:39;23.00;1.00
2639;DHT22;1329;51.384;7.122;2022-07-06T12:09:06;23.10;1.00
2639;DHT22;1329;51.384;7.122;2022-07-06T12:11:46;23.20;1.00
2639;DHT22;1329;51.384;7.122;2022-07-06T12:14:16;23.30;1.00
2639;DHT22;1329;51.384;7.122;2022-07-06T12:16:48;23.40;1.00
2639;DHT22;1329;51.384;7.122;2022-07-06T12:19:26;23.40;1.00
2639;DHT22;1329;51.384;7.122;2022-07-06T12:21:57;23.50;1.00
2639;DHT22;1329;51.384;7.122;2022-07-06T12:24:30;23.40;1.00
2639;DHT22;1329;51.384;7.122;2022-07-06T12:27:14;23.40;1.00
2639;DHT22;1329;51.384;7.122;2022-07-06T12:30:12;23.30;1.00
2639;DHT22;1329;51.384;7.122;2022-07-06T12:32:47;23.40;1.00
2639;DHT22;1329;51.384;7.122;2022-07-06T12:35:16;23.40;1.00
2639;DHT22;1329;51.384;7.122;2022-07-06T12:38:01;23.40;1.00
2639;DHT22;1329;51.384;7.122;2022-07-06T12:40:29;23.50;1.00
2639;DHT22;1329;51.384;7.122;2022-07-06T12:42:58;23.50;1.00
2639;DHT22;1329;51.384;7.122;2022-07-06T12:45:29;23.50;1.00
2639;DHT22;1329;51.384;7.122;2022-07-06T12:48:01;23.50;1.00
2639;DHT22;1329;51.384;7.122;2022-07-06T12:50:31;23.60;1.00
2639;DHT22;1329;51.384;7.122;2022-07-06T12:53:05;23.70;1.00
2639;DHT22;1329;51.384;7.122;2022-07-06T12:56:10;23.70;1.00
2639;DHT22;1329;51.384;7.122;2022-07-06T12:58:57;23.80;1.00
2639;DHT22;1329;51.384;7.122;2022-07-06T13:01:46;23.90;1.00
2639;DHT22;1329;51.384;7.122;2022-07-06T13:04:23;23.80;1.00
2639;DHT22;1329;51.384;7.122;2022-07-06T13:06:55;23.70;1.00
2639;DHT22;1329;51.384;7.122;2022-07-06T13:09:30;23.70;1.00
2639;DHT22;1329;51.384;7.122;2022-07-06T13:12:01;23.70;1.00
2639;DHT22;1329;51.384;7.122;2022-07-06T13:14:31;23.70;1.00
2639;DHT22;1329;51.384;7.122;2022-07-06T13:17:02;23.70;1.00
2639;DHT22;1329;51.384;7.122;2022-07-06T13:19:33;23.70;1.00
2639;DHT22;1329;51.384;7.122;2022-07-06T13:22:10;23.80;1.00
2639;DHT22;1329;51.384;7.122;2022-07-06T13:24:43;23.90;1.00
2639;DHT22;1329;51.384;7.122;2022-07-06T13:27:13;24.10;1.00
2639;DHT22;1329;51.384;7.122;2022-07-06T13:29:46;24.20;1.00
2639;DHT22;1329;51.384;7.122;2022-07-06T13:32:17;24.30;1.00
2639;DHT22;1329;51.384;7.122;2022-07-06T13:34:57;24.40;1.00
2639;DHT22;1329;51.384;7.122;2022-07-06T13:37:25;24.50;1.00
2639;DHT22;1329;51.384;7.122;2022-07-06T13:39:58;24.50;1.00
2639;DHT22;1329;51.384;7.122;2022-07-06T13:42:28;24.60;1.00
2639;DHT22;1329;51.384;7.122;2022-07-06T13:45:03;24.60;1.00
2639;DHT22;1329;51.384;7.122;2022-07-06T13:47:34;24.70;1.00
2639;DHT22;1329;51.384;7.122;2022-07-06T13:50:03;24.70;1.00
2639;DHT22;1329;51.384;7.122;2022-07-06T13:52:35;24.70;1.00
2639;DHT22;1329;51.384;7.122;2022-07-06T13:55:07;24.70;1.00
2639;DHT22;1329;51.384;7.122;2022-07-06T13:57:36;24.60;1.00
2639;DHT22;1329;51.384;7.122;2022-07-06T14:00:10;24.60;1.00
2639;DHT22;1329;51.384;7.122;2022-07-06T14:02:45;24.60;1.00
2639;DHT22;1329;51.384;7.122;2022-07-06T14:05:13;24.60;1.00
2639;DHT22;1329;51.384;7.122;2022-07-06T14:08:03;24.60;1.00
2639;DHT22;1329;51.384;7.122;2022-07-06T14:10:31;24.70;1.00
2639;DHT22;1329;51.384;7.122;2022-07-06T14:12:59;24.80;1.00
2639;DHT22;1329;51.384;7.122;2022-07-06T14:15:30;24.80;1.00
2639;DHT22;1329;51.384;7.122;2022-07-06T14:18:08;24.90;1.00
2639;DHT22;1329;51.384;7.122;2022-07-06T14:20:57;25.00;1.00
2639;DHT22;1329;51.384;7.122;2022-07-06T14:23:32;25.00;1.00
2639;DHT22;1329;51.384;7.122;2022-07-06T14:26:08;24.90;1.00
2639;DHT22;1329;51.384;7.122;2022-07-06T14:28:40;24.80;1.00
2639;DHT22;1329;51.384;7.122;2022-07-06T14:31:11;24.80;1.00
2639;DHT22;1329;51.384;7.122;2022-07-06T14:33:43;24.70;1.00
2639;DHT22;1329;51.384;7.122;2022-07-06T14:36:10;24.60;1.00
2639;DHT22;1329;51.384;7.122;2022-07-06T14:38:39;24.60;1.00
2639;DHT22;1329;51.384;7.122;2022-07-06T14:41:11;24.70;1.00
2639;DHT22;1329;51.384;7.122;2022-07-06T14:43:47;24.70;1.00
2639;DHT22;1329;51.384;7.122;2022-07-06T14:46:37;24.80;1.00
2639;DHT22;1329;51.384;7.122;2022-07-06T14:49:10;24.90;1.00
2639;DHT22;1329;51.384;7.122;2022-07-06T14:51:44;24.90;1.00
2639;DHT22;1329;51.384;7.122;2022-07-06T14:54:20;24.90;1.00
2639;DHT22;1329;51.384;7.122;2022-07-06T14:56:49;24.90;1.00
2639;DHT22;1329;51.384;7.122;2022-07-06T14:59:20;24.90;1.00
2639;DHT22;1329;51.384;7.122;2022-07-06T15:01:49;24.90;1.00
2639;DHT22;1329;51.384;7.122;2022-07-06T15:04:22;24.80;1.00
2639;DHT22;1329;51.384;7.122;2022-07-06T15:06:54;24.80;1.00
2639;DHT22;1329;51.384;7.122;2022-07-06T15:09:22;24.70;1.00
2639;DHT22;1329;51.384;7.122;2022-07-06T15:11:52;24.70;1.00
2639;DHT22;1329;51.384;7.122;2022-07-06T15:14:34;24.60;1.00
2639;DHT22;1329;51.384;7.122;2022-07-06T15:17:11;24.60;1.00
2639;DHT22;1329;51.384;7.122;2022-07-06T15:19:49;24.70;1.00
2639;DHT22;1329;51.384;7.122;2022-07-06T15:22:17;24.80;1.00
2639;DHT22;1329;51.384;7.122;2022-07-06T15:24:52;24.80;1.00
2639;DHT22;1329;51.384;7.122;2022-07-06T15:27:29;24.80;1.00
2639;DHT22;1329;51.384;7.122;2022-07-06T15:30:05;24.80;1.00
2639;DHT22;1329;51.384;7.122;2022-07-06T15:32:43;24.90;1.00
2639;DHT22;1329;51.384;7.122;2022-07-06T15:35:28;24.90;1.00
2639;DHT22;1329;51.384;7.122;2022-07-06T15:38:06;24.80;1.00
2639;DHT22;1329;51.384;7.122;2022-07-06T15:40:40;24.80;1.00
2639;DHT22;1329;51.384;7.122;2022-07-06T15:43:16;24.70;1.00
2639;DHT22;1329;51.384;7.122;2022-07-06T15:45:47;24.70;1.00
2639;DHT22;1329;51.384;7.122;2022-07-06T15:48:25;24.70;1.00
2639;DHT22;1329;51.384;7.122;2022-07-06T15:50:56;24.70;1.00
2639;DHT22;1329;51.384;7.122;2022-07-06T15:53:46;24.60;1.00
2639;DHT22;1329;51.384;7.122;2022-07-06T15:56:20;24.70;1.00
2639;DHT22;1329;51.384;7.122;2022-07-06T15:58:54;24.80;1.00
2639;DHT22;1329;51.384;7.122;2022-07-06T16:01:24;24.80;1.00
2639;DHT22;1329;51.384;7.122;2022-07-06T16:04:14;24.90;1.00
2639;DHT22;1329;51.384;7.122;2022-07-06T16:06:59;24.90;1.00
2639;DHT22;1329;51.384;7.122;2022-07-06T16:09:28;25.00;1.00
2639;DHT22;1329;51.384;7.122;2022-07-06T16:12:01;25.00;1.00
2639;DHT22;1329;51.384;7.122;2022-07-06T16:14:42;25.00;1.00
2639;DHT22;1329;51.384;7.122;2022-07-06T16:17:10;25.10;1.00
2639;DHT22;1329;51.384;7.122;2022-07-06T16:19:42;25.10;1.00
2639;DHT22;1329;51.384;7.122;2022-07-06T16:22:16;25.20;1.00
2639;DHT22;1329;51.384;7.122;2022-07-06T16:25:00;25.30;1.00
2639;DHT22;1329;51.384;7.122;2022-07-06T16:27:31;25.40;1.00
2639;DHT22;1329;51.384;7.122;2022-07-06T16:30:23;25.50;1.00
2639;DHT22;1329;51.384;7.122;2022-07-06T16:33:35;25.60;1.00
2639;DHT22;1329;51.384;7.122;2022-07-06T16:36:12;25.70;1.00
2639;DHT22;1329;51.384;7.122;2022-07-06T16:41:56;25.70;1.00
2639;DHT22;1329;51.384;7.122;2022-07-06T16:47:16;25.50;1.00
2639;DHT22;1329;51.384;7.122;2022-07-06T16:49:56;25.30;1.00
2639;DHT22;1329;51.384;7.122;2022-07-06T16:52:45;25.20;1.00
2639;DHT22;1329;51.384;7.122;2022-07-06T16:55:25;25.20;1.00